sensor_id;sensor_type;location;lat;lon;timestamp;pressure;altitude;pressure_sealevel;temperature;humidity
15634;BME280;14654;48.898;8.308;2023-04-08T00:02:15;100654.97;;;10.34;100.00
15634;BME280;14654;48.898;8.308;2023-04-08T00:04:40;100658.44;;;10.31;100.00
15634;BME280;14654;48.898;8.308;2023-04-08T00:07:05;100657.56;;;10.29;100.00
15634;BME280;14654;48.898;8.308;2023-04-08T00:09:31;100656.72;;;10.27;100.00
15634;BME280;14654;48.898;8.308;2023-04-08T00:11:57;100667.94;;;10.25;100.00
15634;BME280;14654;48.898;8.308;2023-04-08T00:14:22;100664.47;;;10.24;100.00
15634;BME280;14654;48.898;8.308;2023-04-08T00:16:47;100664.47;;;10.24;100.00
15634;BME280;14654;48.898;8.308;2023-04-08T00:19:13;100670.53;;;10.25;100.00
15634;BME280;14654;48.898;8.308;2023-04-08T00:21:38;100663.59;;;10.22;100.00
15634;BME280;14654;48.898;8.308;2023-04-08T00:24:05;100669.66;;;10.21;100.00
15634;BME280;14654;48.898;8.308;2023-04-08T00:26:31;100669.66;;;10.19;100.00
15634;BME280;14654;48.898;8.308;2023-04-08T00:28:56;100667.94;;;10.18;100.00
15634;BME280;14654;48.898;8.308;2023-04-08T00:31:22;100672.25;;;10.19;100.00
15634;BME280;14654;48.898;8.308;2023-04-08T00:33:47;100663.63;;;10.17;100.00
15634;BME280;14654;48.898;8.308;2023-04-08T00:36:12;100661.03;;;10.20;100.00
15634;BME280;14654;48.898;8.308;2023-04-08T00:38:38;100668.78;;;10.22;100.00
15634;BME280;14654;48.898;8.308;2023-04-08T00:41:03;100661.03;;;10.25;100.00
15634;BME280;14654;48.898;8.308;2023-04-08T00:43:28;100666.22;;;10.27;100.00
15634;BME280;14654;48.898;8.308;2023-04-08T00:45:54;100668.78;;;10.28;100.00
15634;BME280;14654;48.898;8.308;2023-04-08T00:48:19;100667.94;;;10.28;100.00
15634;BME280;14654;48.898;8.308;2023-04-08T00:50:45;100672.22;;;10.29;100.00
15634;BME280;14654;48.898;8.308;2023-04-08T00:53:14;100676.53;;;10.31;100.00
15634;BME280;14654;48.898;8.308;2023-04-08T00:55:41;100667.06;;;10.27;100.00
15634;BME280;14654;48.898;8.308;2023-04-08T00:58:07;100673.97;;;10.28;100.00
15634;BME280;14654;48.898;8.308;2023-04-08T01:00:33;100680.84;;;10.26;100.00
15634;BME280;14654;48.898;8.308;2023-04-08T01:06:09;100677.44;;;10.10;100.00
15634;BME280;14654;48.898;8.308;2023-04-08T01:08:38;100676.56;;;10.10;100.00
15634;BME280;14654;48.898;8.308;2023-04-08T01:11:09;100675.69;;;10.11;100.00
15634;BME280;14654;48.898;8.308;2023-04-08T01:13:39;100671.38;;;10.13;100.00
15634;BME280;14654;48.898;8.308;2023-04-08T01:16:07;100681.72;;;10.14;100.00
15634;BME280;14654;48.898;8.308;2023-04-08T01:18:34;100675.72;;;10.12;100.00
15634;BME280;14654;48.898;8.308;2023-04-08T01:21:01;100684.31;;;10.06;100.00
15634;BME280;14654;48.898;8.308;2023-04-08T01:26:20;100674.84;;;9.93;100.00
15634;BME280;14654;48.898;8.308;2023-04-08T01:28:48;100678.31;;;9.94;100.00
15634;BME280;14654;48.898;8.308;2023-04-08T01:31:15;100677.44;;;9.96;100.00
15634;BME280;14654;48.898;8.308;2023-04-08T01:33:42;100675.72;;;9.97;100.00
15634;BME280;14654;48.898;8.308;2023-04-08T01:36:09;100678.28;;;9.95;100.00
15634;BME280;14654;48.898;8.308;2023-04-08T01:38:35;100677.41;;;9.93;100.00
15634;BME280;14654;48.898;8.308;2023-04-08T01:41:02;100678.28;;;9.95;100.00
15634;BME280;14654;48.898;8.308;2023-04-08T01:43:30;100669.69;;;9.95;100.00
15634;BME280;14654;48.898;8.308;2023-04-08T01:45:57;100676.56;;;9.97;100.00
15634;BME280;14654;48.898;8.308;2023-04-08T01:48:23;100662.78;;;9.98;100.00
15634;BME280;14654;48.898;8.308;2023-04-08T01:50:49;100664.53;;;9.98;100.00
15634;BME280;14654;48.898;8.308;2023-04-08T01:53:16;100668.81;;;9.99;100.00
15634;BME280;14654;48.898;8.308;2023-04-08T01:55:42;100672.28;;;9.98;100.00
15634;BME280;14654;48.898;8.308;2023-04-08T01:58:11;100665.38;;;9.98;100.00
15634;BME280;14654;48.898;8.308;2023-04-08T02:00:40;100670.53;;;9.98;100.00
15634;BME280;14654;48.898;8.308;2023-04-08T02:03:08;100668.81;;;9.97;100.00
15634;BME280;14654;48.898;8.308;2023-04-08T02:05:36;100662.78;;;9.92;100.00
15634;BME280;14654;48.898;8.308;2023-04-08T02:08:01;100661.91;;;9.88;100.00
15634;BME280;14654;48.898;8.308;2023-04-08T02:10:26;100662.78;;;9.84;100.00
15634;BME280;14654;48.898;8.308;2023-04-08T02:12:52;100665.38;;;9.83;100.00
15634;BME280;14654;48.898;8.308;2023-04-08T02:15:17;100668.81;;;9.79;100.00
15634;BME280;14654;48.898;8.308;2023-04-08T02:17:51;100671.38;;;9.79;100.00
15634;BME280;14654;48.898;8.308;2023-04-08T02:20:24;100673.09;;;9.76;100.00
15634;BME280;14654;48.898;8.308;2023-04-08T02:25:35;100676.56;;;9.82;100.00
15634;BME280;14654;48.898;8.308;2023-04-08T02:28:05;100678.31;;;9.81;100.00
15634;BME280;14654;48.898;8.308;2023-04-08T02:30:34;100682.59;;;9.81;100.00
15634;BME280;14654;48.898;8.308;2023-04-08T02:33:03;100679.16;;;9.80;100.00
15634;BME280;14654;48.898;8.308;2023-04-08T02:35:29;100670.53;;;9.80;100.00
15634;BME280;14654;48.898;8.308;2023-04-08T02:37:55;100674.84;;;9.81;100.00
15634;BME280;14654;48.898;8.308;2023-04-08T02:42:50;100681.75;;;9.80;100.00
15634;BME280;14654;48.898;8.308;2023-04-08T02:45:16;100673.13;;;9.81;100.00
15634;BME280;14654;48.898;8.308;2023-04-08T02:47:41;100667.94;;;9.80;100.00
15634;BME280;14654;48.898;8.308;2023-04-08T02:50:06;100665.38;;;9.78;100.00
15634;BME280;14654;48.898;8.308;2023-04-08T02:52:32;100662.78;;;9.76;100.00
15634;BME280;14654;48.898;8.308;2023-04-08T02:54:57;100674.00;;;9.72;100.00
15634;BME280;14654;48.898;8.308;2023-04-08T02:57:22;100669.69;;;9.71;100.00
15634;BME280;14654;48.898;8.308;2023-04-08T02:59:48;100668.81;;;9.68;100.00
15634;BME280;14654;48.898;8.308;2023-04-08T03:02:13;100673.13;;;9.66;100.00
15634;BME280;14654;48.898;8.308;2023-04-08T03:04:38;100673.13;;;9.63;100.00
15634;BME280;14654;48.898;8.308;2023-04-08T03:07:04;100673.97;;;9.60;100.00
15634;BME280;14654;48.898;8.308;2023-04-08T03:09:29;100679.13;;;9.58;100.00
15634;BME280;14654;48.898;8.308;2023-04-08T03:11:55;100670.53;;;9.58;100.00
15634;BME280;14654;48.898;8.308;2023-04-08T03:14:20;100670.50;;;9.61;100.00
15634;BME280;14654;48.898;8.308;2023-04-08T03:16:46;100668.81;;;9.60;100.00
15634;BME280;14654;48.898;8.308;2023-04-08T03:19:11;100668.81;;;9.61;100.00
15634;BME280;14654;48.898;8.308;2023-04-08T03:21:37;100672.25;;;9.64;100.00
15634;BME280;14654;48.898;8.308;2023-04-08T03:24:02;100678.28;;;9.66;100.00
15634;BME280;14654;48.898;8.308;2023-04-08T03:26:28;100675.72;;;9.66;100.00
15634;BME280;14654;48.898;8.308;2023-04-08T03:28:53;100673.97;;;9.66;100.00
15634;BME280;14654;48.898;8.308;2023-04-08T03:31:18;100674.00;;;9.68;100.00
15634;BME280;14654;48.898;8.308;2023-04-08T03:33:45;100673.13;;;9.66;100.00
15634;BME280;14654;48.898;8.308;2023-04-08T03:36:11;100674.84;;;9.65;100.00
15634;BME280;14654;48.898;8.308;2023-04-08T03:38:36;100680.84;;;9.64;100.00
15634;BME280;14654;48.898;8.308;2023-04-08T03:41:02;100681.72;;;9.63;100.00
15634;BME280;14654;48.898;8.308;2023-04-08T03:43:27;100684.28;;;9.63;100.00
15634;BME280;14654;48.898;8.308;2023-04-08T03:45:52;100680.88;;;9.63;100.00
15634;BME280;14654;48.898;8.308;2023-04-08T03:48:17;100680.84;;;9.61;100.00
15634;BME280;14654;48.898;8.308;2023-04-08T03:50:43;100677.41;;;9.60;100.00
15634;BME280;14654;48.898;8.308;2023-04-08T03:53:08;100686.00;;;9.61;100.00
15634;BME280;14654;48.898;8.308;2023-04-08T03:55:35;100685.16;;;9.62;100.00
15634;BME280;14654;48.898;8.308;2023-04-08T03:58:01;100691.19;;;9.63;100.00
15634;BME280;14654;48.898;8.308;2023-04-08T04:00:26;100681.72;;;9.61;100.00
15634;BME280;14654;48.898;8.308;2023-04-08T04:02:51;100690.34;;;9.60;100.00
15634;BME280;14654;48.898;8.308;2023-04-08T04:05:17;100685.19;;;9.59;100.00
15634;BME280;14654;48.898;8.308;2023-04-08T04:07:42;100685.19;;;9.59;100.00
15634;BME280;14654;48.898;8.308;2023-04-08T04:10:08;100687.75;;;9.59;100.00
15634;BME280;14654;48.898;8.308;2023-04-08T04:12:34;100688.59;;;9.59;100.00
15634;BME280;14654;48.898;8.308;2023-04-08T04:14:59;100686.88;;;9.58;100.00
15634;BME280;14654;48.898;8.308;2023-04-08T04:17:25;100682.56;;;9.57;100.00
15634;BME280;14654;48.898;8.308;2023-04-08T04:19:51;100686.03;;;9.58;100.00
15634;BME280;14654;48.898;8.308;2023-04-08T04:22:17;100682.56;;;9.57;100.00
15634;BME280;14654;48.898;8.308;2023-04-08T04:24:46;100680.88;;;9.58;100.00
15634;BME280;14654;48.898;8.308;2023-04-08T04:27:11;100680.88;;;9.58;100.00
15634;BME280;14654;48.898;8.308;2023-04-08T04:29:36;100683.44;;;9.58;100.00
15634;BME280;14654;48.898;8.308;2023-04-08T04:32:01;100684.31;;;9.57;100.00
15634;BME280;14654;48.898;8.308;2023-04-08T04:34:27;100683.44;;;9.52;100.00
15634;BME280;14654;48.898;8.308;2023-04-08T04:36:52;100693.75;;;9.47;100.00
15634;BME280;14654;48.898;8.308;2023-04-08T04:39:17;100691.16;;;9.42;100.00
15634;BME280;14654;48.898;8.308;2023-04-08T04:41:43;100698.88;;;9.38;100.00
15634;BME280;14654;48.898;8.308;2023-04-08T04:44:08;100696.31;;;9.39;100.00
15634;BME280;14654;48.898;8.308;2023-04-08T04:46:33;100705.78;;;9.39;100.00
15634;BME280;14654;48.898;8.308;2023-04-08T04:48:59;100701.47;;;9.36;100.00
15634;BME280;14654;48.898;8.308;2023-04-08T04:51:24;100712.69;;;9.37;100.00
15634;BME280;14654;48.898;8.308;2023-04-08T04:53:51;100713.53;;;9.37;100.00
15634;BME280;14654;48.898;8.308;2023-04-08T04:56:16;100714.38;;;9.38;100.00
15634;BME280;14654;48.898;8.308;2023-04-08T04:58:41;100712.69;;;9.38;100.00
15634;BME280;14654;48.898;8.308;2023-04-08T05:01:07;100717.84;;;9.38;100.00
15634;BME280;14654;48.898;8.308;2023-04-08T05:03:32;100717.84;;;9.35;100.00
15634;BME280;14654;48.898;8.308;2023-04-08T05:05:58;100714.41;;;9.35;100.00
15634;BME280;14654;48.898;8.308;2023-04-08T05:08:23;100725.59;;;9.37;100.00
15634;BME280;14654;48.898;8.308;2023-04-08T05:10:49;100722.13;;;9.38;100.00
15634;BME280;14654;48.898;8.308;2023-04-08T05:13:14;100725.63;;;9.41;100.00
15634;BME280;14654;48.898;8.308;2023-04-08T05:15:40;100720.44;;;9.43;100.00
15634;BME280;14654;48.898;8.308;2023-04-08T05:18:05;100718.72;;;9.45;100.00
15634;BME280;14654;48.898;8.308;2023-04-08T05:20:31;100721.31;;;9.48;100.00
15634;BME280;14654;48.898;8.308;2023-04-08T05:22:56;100729.06;;;9.50;100.00
15634;BME280;14654;48.898;8.308;2023-04-08T05:25:21;100737.69;;;9.53;100.00
15634;BME280;14654;48.898;8.308;2023-04-08T05:27:47;100741.16;;;9.57;100.00
15634;BME280;14654;48.898;8.308;2023-04-08T05:30:12;100729.94;;;9.59;100.00
15634;BME280;14654;48.898;8.308;2023-04-08T05:32:37;100736.84;;;9.62;100.00
15634;BME280;14654;48.898;8.308;2023-04-08T05:35:03;100746.31;;;9.63;100.00
15634;BME280;14654;48.898;8.308;2023-04-08T05:37:28;100737.72;;;9.64;100.00
15634;BME280;14654;48.898;8.308;2023-04-08T05:39:54;100733.41;;;9.66;100.00
15634;BME280;14654;48.898;8.308;2023-04-08T05:42:19;100742.88;;;9.69;100.00
15634;BME280;14654;48.898;8.308;2023-04-08T05:44:44;100749.81;;;9.74;100.00
15634;BME280;14654;48.898;8.308;2023-04-08T05:47:10;100741.19;;;9.79;100.00
15634;BME280;14654;48.898;8.308;2023-04-08T05:49:35;100748.97;;;9.85;100.00
15634;BME280;14654;48.898;8.308;2023-04-08T05:52:00;100750.69;;;9.94;100.00
15634;BME280;14654;48.898;8.308;2023-04-08T05:54:27;100747.25;;;9.99;100.00
15634;BME280;14654;48.898;8.308;2023-04-08T05:56:53;100739.50;;;10.04;100.00
15634;BME280;14654;48.898;8.308;2023-04-08T05:59:18;100746.38;;;10.10;100.00
15634;BME280;14654;48.898;8.308;2023-04-08T06:01:43;100748.97;;;10.16;100.00
15634;BME280;14654;48.898;8.308;2023-04-08T06:04:09;100750.72;;;10.25;100.00
15634;BME280;14654;48.898;8.308;2023-04-08T06:06:39;100752.41;;;10.35;100.00
15634;BME280;14654;48.898;8.308;2023-04-08T06:09:05;100755.03;;;10.46;100.00
15634;BME280;14654;48.898;8.308;2023-04-08T06:11:30;100755.03;;;10.61;100.00
15634;BME280;14654;48.898;8.308;2023-04-08T06:13:56;100766.22;;;10.73;100.00
15634;BME280;14654;48.898;8.308;2023-04-08T06:16:21;100765.34;;;10.78;100.00
15634;BME280;14654;48.898;8.308;2023-04-08T06:18:47;100768.78;;;10.82;100.00
15634;BME280;14654;48.898;8.308;2023-04-08T06:21:12;100765.34;;;10.85;100.00
15634;BME280;14654;48.898;8.308;2023-04-08T06:23:38;100768.78;;;10.88;100.00
15634;BME280;14654;48.898;8.308;2023-04-08T06:26:03;100762.72;;;10.92;100.00
15634;BME280;14654;48.898;8.308;2023-04-08T06:28:29;100761.84;;;10.96;100.00
15634;BME280;14654;48.898;8.308;2023-04-08T06:30:55;100767.88;;;11.00;100.00
15634;BME280;14654;48.898;8.308;2023-04-08T06:33:21;100768.75;;;11.02;100.00
15634;BME280;14654;48.898;8.308;2023-04-08T06:35:46;100766.13;;;11.01;100.00
15634;BME280;14654;48.898;8.308;2023-04-08T06:38:11;100771.34;;;10.99;100.00
15634;BME280;14654;48.898;8.308;2023-04-08T06:40:39;100773.03;;;10.98;100.00
15634;BME280;14654;48.898;8.308;2023-04-08T06:43:05;100772.19;;;11.00;100.00
15634;BME280;14654;48.898;8.308;2023-04-08T06:45:32;100776.47;;;11.08;100.00
15634;BME280;14654;48.898;8.308;2023-04-08T06:47:57;100779.03;;;11.19;100.00
15634;BME280;14654;48.898;8.308;2023-04-08T06:50:22;100780.72;;;11.34;100.00
15634;BME280;14654;48.898;8.308;2023-04-08T06:52:48;100781.50;;;11.47;100.00
15634;BME280;14654;48.898;8.308;2023-04-08T06:55:13;100784.88;;;11.62;100.00
15634;BME280;14654;48.898;8.308;2023-04-08T06:57:38;100789.13;;;11.75;100.00
15634;BME280;14654;48.898;8.308;2023-04-08T07:00:04;100789.06;;;11.86;100.00
15634;BME280;14654;48.898;8.308;2023-04-08T07:02:30;100787.25;;;11.97;100.00
15634;BME280;14654;48.898;8.308;2023-04-08T07:04:56;100789.84;;;12.05;100.00
15634;BME280;14654;48.898;8.308;2023-04-08T07:07:22;100795.88;;;12.10;100.00
15634;BME280;14654;48.898;8.308;2023-04-08T07:09:49;100794.97;;;12.14;100.00
15634;BME280;14654;48.898;8.308;2023-04-08T07:12:14;100791.47;;;12.22;100.00
15634;BME280;14654;48.898;8.308;2023-04-08T07:14:40;100795.75;;;12.29;100.00
15634;BME280;14654;48.898;8.308;2023-04-08T07:17:05;100798.25;;;12.40;100.00
15634;BME280;14654;48.898;8.308;2023-04-08T07:19:30;100796.47;;;12.45;100.00
15634;BME280;14654;48.898;8.308;2023-04-08T07:21:56;100800.78;;;12.43;100.00
15634;BME280;14654;48.898;8.308;2023-04-08T07:24:22;100797.34;;;12.45;100.00
15634;BME280;14654;48.898;8.308;2023-04-08T07:26:47;100800.66;;;12.58;100.00
15634;BME280;14654;48.898;8.308;2023-04-08T07:29:13;100803.16;;;12.72;100.00
15634;BME280;14654;48.898;8.308;2023-04-08T07:31:41;100800.41;;;12.86;100.00
15634;BME280;14654;48.898;8.308;2023-04-08T07:34:07;100796.22;;;12.71;97.25
15634;BME280;14654;48.898;8.308;2023-04-08T07:36:32;100795.50;;;12.57;97.44
15634;BME280;14654;48.898;8.308;2023-04-08T07:38:57;100801.72;;;12.37;97.69
15634;BME280;14654;48.898;8.308;2023-04-08T07:41:23;100813.94;;;12.24;98.54
15634;BME280;14654;48.898;8.308;2023-04-08T07:43:48;100811.44;;;12.10;99.50
15634;BME280;14654;48.898;8.308;2023-04-08T07:46:13;100810.63;;;12.03;97.87
15634;BME280;14654;48.898;8.308;2023-04-08T07:48:38;100813.22;;;11.97;97.47
15634;BME280;14654;48.898;8.308;2023-04-08T07:51:08;100812.34;;;11.97;98.11
15634;BME280;14654;48.898;8.308;2023-04-08T07:53:34;100818.41;;;12.03;97.53
15634;BME280;14654;48.898;8.308;2023-04-08T07:56:00;100814.91;;;12.06;96.59
15634;BME280;14654;48.898;8.308;2023-04-08T07:58:28;100817.38;;;12.26;95.21
15634;BME280;14654;48.898;8.308;2023-04-08T08:00:53;100818.13;;;12.42;93.85
15634;BME280;14654;48.898;8.308;2023-04-08T08:03:18;100825.69;;;12.69;92.59
15634;BME280;14654;48.898;8.308;2023-04-08T08:05:44;100819.44;;;12.90;90.95
15634;BME280;14654;48.898;8.308;2023-04-08T08:08:09;100833.03;;;13.14;90.99
15634;BME280;14654;48.898;8.308;2023-04-08T08:10:38;100824.03;;;13.46;90.24
15634;BME280;14654;48.898;8.308;2023-04-08T08:13:05;100825.41;;;13.75;88.44
15634;BME280;14654;48.898;8.308;2023-04-08T08:15:31;100830.50;;;13.84;88.49
15634;BME280;14654;48.898;8.308;2023-04-08T08:17:57;100829.66;;;13.82;87.15
15634;BME280;14654;48.898;8.308;2023-04-08T08:20:22;100824.63;;;13.68;87.76
15634;BME280;14654;48.898;8.308;2023-04-08T08:22:47;100831.81;;;13.47;87.77
15634;BME280;14654;48.898;8.308;2023-04-08T08:25:12;100831.13;;;13.30;88.42
15634;BME280;14654;48.898;8.308;2023-04-08T08:27:38;100825.31;;;13.06;88.90
15634;BME280;14654;48.898;8.308;2023-04-08T08:30:06;100834.88;;;13.05;89.49
15634;BME280;14654;48.898;8.308;2023-04-08T08:32:32;100837.38;;;13.13;89.90
15634;BME280;14654;48.898;8.308;2023-04-08T08:34:57;100835.53;;;13.21;89.33
15634;BME280;14654;48.898;8.308;2023-04-08T08:37:22;100830.34;;;13.23;88.12
15634;BME280;14654;48.898;8.308;2023-04-08T08:39:47;100842.66;;;13.05;87.70
15634;BME280;14654;48.898;8.308;2023-04-08T08:42:24;100834.84;;;13.04;88.16
15634;BME280;14654;48.898;8.308;2023-04-08T08:44:50;100847.78;;;13.11;88.46
15634;BME280;14654;48.898;8.308;2023-04-08T08:47:16;100845.94;;;13.23;87.55
15634;BME280;14654;48.898;8.308;2023-04-08T08:49:42;100837.13;;;13.35;87.17
15634;BME280;14654;48.898;8.308;2023-04-08T08:52:07;100839.66;;;13.43;84.92
15634;BME280;14654;48.898;8.308;2023-04-08T08:54:33;100841.28;;;13.53;84.22
15634;BME280;14654;48.898;8.308;2023-04-08T08:56:58;100843.72;;;13.64;84.13
15634;BME280;14654;48.898;8.308;2023-04-08T08:59:24;100847.97;;;13.74;83.61
15634;BME280;14654;48.898;8.308;2023-04-08T09:01:50;100845.56;;;13.59;81.96
15634;BME280;14654;48.898;8.308;2023-04-08T09:04:19;100845.31;;;13.76;82.12
15634;BME280;14654;48.898;8.308;2023-04-08T09:06:47;100857.34;;;13.84;82.25
15634;BME280;14654;48.898;8.308;2023-04-08T09:09:14;100865.03;;;13.95;81.23
15634;BME280;14654;48.898;8.308;2023-04-08T09:11:41;100856.41;;;13.90;80.82
15634;BME280;14654;48.898;8.308;2023-04-08T09:14:17;100861.03;;;13.68;80.83
15634;BME280;14654;48.898;8.308;2023-04-08T09:16:43;100854.13;;;13.64;81.76
15634;BME280;14654;48.898;8.308;2023-04-08T09:19:09;100852.38;;;13.67;81.79
15634;BME280;14654;48.898;8.308;2023-04-08T09:21:36;100855.72;;;13.76;81.92
15634;BME280;14654;48.898;8.308;2023-04-08T09:24:01;100855.66;;;13.82;81.59
15634;BME280;14654;48.898;8.308;2023-04-08T09:26:27;100852.28;;;13.74;81.85
15634;BME280;14654;48.898;8.308;2023-04-08T09:29:00;100858.31;;;13.77;81.71
15634;BME280;14654;48.898;8.308;2023-04-08T09:31:28;100850.50;;;13.79;81.45
15634;BME280;14654;48.898;8.308;2023-04-08T09:34:08;100848.84;;;13.71;80.30
15634;BME280;14654;48.898;8.308;2023-04-08T09:36:33;100848.09;;;13.62;80.60
15634;BME280;14654;48.898;8.308;2023-04-08T09:38:58;100844.56;;;13.69;80.97
15634;BME280;14654;48.898;8.308;2023-04-08T09:41:26;100842.72;;;13.76;80.77
15634;BME280;14654;48.898;8.308;2023-04-08T09:43:53;100847.66;;;13.97;80.54
15634;BME280;14654;48.898;8.308;2023-04-08T09:52:08;100846.09;;;14.43;79.63
15634;BME280;14654;48.898;8.308;2023-04-08T09:54:54;100843.78;;;14.80;78.09
15634;BME280;14654;48.898;8.308;2023-04-08T09:57:43;100840.69;;;15.07;74.70
15634;BME280;14654;48.898;8.308;2023-04-08T10:00:14;100844.41;;;15.39;74.50
15634;BME280;14654;48.898;8.308;2023-04-08T10:05:12;100844.19;;;15.93;75.19
15634;BME280;14654;48.898;8.308;2023-04-08T10:07:38;100838.34;;;16.19;74.48
15634;BME280;14654;48.898;8.308;2023-04-08T10:10:06;100844.75;;;16.43;73.79
15634;BME280;14654;48.898;8.308;2023-04-08T10:12:33;100842.94;;;16.47;71.83
15634;BME280;14654;48.898;8.308;2023-04-08T10:15:28;100846.19;;;16.55;71.35
15634;BME280;14654;48.898;8.308;2023-04-08T10:23:07;100842.41;;;16.33;66.31
15634;BME280;14654;48.898;8.308;2023-04-08T10:25:36;100844.66;;;16.46;65.99
15634;BME280;14654;48.898;8.308;2023-04-08T10:33:17;100835.81;;;16.52;68.18
15634;BME280;14654;48.898;8.308;2023-04-08T10:35:47;100842.44;;;16.67;69.17
15634;BME280;14654;48.898;8.308;2023-04-08T10:38:13;100837.47;;;16.56;68.35
15634;BME280;14654;48.898;8.308;2023-04-08T10:40:41;100833.47;;;16.41;68.44
15634;BME280;14654;48.898;8.308;2023-04-08T10:43:11;100837.56;;;16.15;69.44
15634;BME280;14654;48.898;8.308;2023-04-08T10:45:38;100837.19;;;15.95;68.47
15634;BME280;14654;48.898;8.308;2023-04-08T10:50:39;100832.06;;;16.28;67.12
15634;BME280;14654;48.898;8.308;2023-04-08T10:53:05;100830.56;;;16.54;66.85
15634;BME280;14654;48.898;8.308;2023-04-08T10:55:32;100823.03;;;16.76;66.77
15634;BME280;14654;48.898;8.308;2023-04-08T10:58:07;100821.97;;;16.83;66.51
15634;BME280;14654;48.898;8.308;2023-04-08T11:00:35;100826.34;;;16.83;66.77
15634;BME280;14654;48.898;8.308;2023-04-08T11:03:10;100821.84;;;16.88;66.76
15634;BME280;14654;48.898;8.308;2023-04-08T11:05:37;100817.19;;;17.01;66.62
15634;BME280;14654;48.898;8.308;2023-04-08T11:08:04;100814.56;;;17.01;65.36
15634;BME280;14654;48.898;8.308;2023-04-08T11:10:30;100814.81;;;16.90;63.25
15634;BME280;14654;48.898;8.308;2023-04-08T11:12:56;100820.63;;;17.03;60.76
15634;BME280;14654;48.898;8.308;2023-04-08T11:15:28;100812.97;;;16.95;62.12
15634;BME280;14654;48.898;8.308;2023-04-08T11:17:54;100813.41;;;16.78;62.82
15634;BME280;14654;48.898;8.308;2023-04-08T11:20:20;100818.16;;;16.27;60.91
15634;BME280;14654;48.898;8.308;2023-04-08T11:22:47;100814.97;;;16.14;61.40
15634;BME280;14654;48.898;8.308;2023-04-08T11:25:12;100823.63;;;15.76;62.17
15634;BME280;14654;48.898;8.308;2023-04-08T11:27:38;100822.09;;;15.67;61.73
15634;BME280;14654;48.898;8.308;2023-04-08T11:30:05;100815.56;;;15.47;59.76
15634;BME280;14654;48.898;8.308;2023-04-08T11:32:31;100823.13;;;15.16;61.40
15634;BME280;14654;48.898;8.308;2023-04-08T11:35:01;100819.69;;;15.15;62.17
15634;BME280;14654;48.898;8.308;2023-04-08T11:37:35;100818.44;;;15.33;62.67
15634;BME280;14654;48.898;8.308;2023-04-08T11:40:01;100820.63;;;15.53;62.57
15634;BME280;14654;48.898;8.308;2023-04-08T11:42:31;100813.38;;;15.26;61.11
15634;BME280;14654;48.898;8.308;2023-04-08T11:44:57;100817.94;;;15.14;61.47
15634;BME280;14654;48.898;8.308;2023-04-08T11:47:30;100816.94;;;14.74;61.98
15634;BME280;14654;48.898;8.308;2023-04-08T11:49:57;100821.69;;;14.49;62.73
15634;BME280;14654;48.898;8.308;2023-04-08T11:52:42;100820.78;;;14.52;63.68
15634;BME280;14654;48.898;8.308;2023-04-08T11:55:32;100819.88;;;14.53;63.66
15634;BME280;14654;48.898;8.308;2023-04-08T11:58:02;100822.66;;;14.43;64.64
15634;BME280;14654;48.898;8.308;2023-04-08T12:00:28;100823.44;;;14.48;65.08
15634;BME280;14654;48.898;8.308;2023-04-08T12:02:54;100818.53;;;14.30;64.76
15634;BME280;14654;48.898;8.308;2023-04-08T12:05:19;100819.50;;;14.23;65.28
15634;BME280;14654;48.898;8.308;2023-04-08T12:07:45;100823.81;;;14.24;66.09
15634;BME280;14654;48.898;8.308;2023-04-08T12:10:11;100826.38;;;14.27;66.36
15634;BME280;14654;48.898;8.308;2023-04-08T12:12:37;100818.38;;;14.39;66.11
15634;BME280;14654;48.898;8.308;2023-04-08T12:15:03;100814.50;;;14.63;65.64
15634;BME280;14654;48.898;8.308;2023-04-08T12:17:29;100825.75;;;14.66;63.28
15634;BME280;14654;48.898;8.308;2023-04-08T12:19:55;100820.66;;;14.59;62.17
15634;BME280;14654;48.898;8.308;2023-04-08T12:22:21;100821.41;;;14.68;61.43
15634;BME280;14654;48.898;8.308;2023-04-08T12:24:46;100827.38;;;14.74;60.41
15634;BME280;14654;48.898;8.308;2023-04-08T12:27:12;100827.19;;;14.85;59.66
15634;BME280;14654;48.898;8.308;2023-04-08T12:29:37;100826.03;;;15.00;60.23
15634;BME280;14654;48.898;8.308;2023-04-08T12:32:03;100831.13;;;15.06;59.38
15634;BME280;14654;48.898;8.308;2023-04-08T12:34:30;100823.19;;;15.13;60.15
15634;BME280;14654;48.898;8.308;2023-04-08T12:36:55;100824.38;;;15.42;60.01
15634;BME280;14654;48.898;8.308;2023-04-08T12:39:20;100825.69;;;15.61;59.55
15634;BME280;14654;48.898;8.308;2023-04-08T12:41:46;100822.06;;;15.68;59.34
15634;BME280;14654;48.898;8.308;2023-04-08T12:44:11;100821.44;;;15.57;58.57
15634;BME280;14654;48.898;8.308;2023-04-08T12:46:37;100820.25;;;15.72;59.25
15634;BME280;14654;48.898;8.308;2023-04-08T12:49:02;100821.19;;;15.69;59.38
15634;BME280;14654;48.898;8.308;2023-04-08T12:51:27;100823.03;;;15.64;60.05
15634;BME280;14654;48.898;8.308;2023-04-08T12:53:53;100816.72;;;15.32;60.77
15634;BME280;14654;48.898;8.308;2023-04-08T12:56:19;100819.31;;;15.34;61.23
15634;BME280;14654;48.898;8.308;2023-04-08T12:58:45;100824.19;;;15.51;60.96
15634;BME280;14654;48.898;8.308;2023-04-08T13:01:10;100814.94;;;15.34;61.40
15634;BME280;14654;48.898;8.308;2023-04-08T13:03:36;100814.00;;;15.37;61.42
15634;BME280;14654;48.898;8.308;2023-04-08T13:06:01;100829.47;;;15.02;61.41
15634;BME280;14654;48.898;8.308;2023-04-08T13:08:27;100825.97;;;15.03;61.37
15634;BME280;14654;48.898;8.308;2023-04-08T13:10:53;100821.84;;;14.91;61.81
15634;BME280;14654;48.898;8.308;2023-04-08T13:13:21;100823.69;;;14.85;62.25
15634;BME280;14654;48.898;8.308;2023-04-08T13:15:46;100827.78;;;15.00;61.72
15634;BME280;14654;48.898;8.308;2023-04-08T13:18:12;100827.44;;;15.17;61.88